Time;durP1;ratioP1;P1;durP2;ratioP2;P2;SDS_P1;SDS_P2;PMS_P1;PMS_P2;Temp;Humidity;BMP_temperature;BMP_pressure;BME280_temperature;BME280_humidity;BME280_pressure;Samples;Min_cycle;Max_cycle;Signal;HPM_P1;HPM_P2
2022/05/05 00:00:01;;;;;;;20.48;9.05;;;;;;;;;;5092053;28;20020;-89
2022/05/05 00:02:26;;;;;;;20.00;8.82;;;;;;;;;;5091625;28;20077;-89
2022/05/05 00:04:52;;;;;;;20.38;8.35;;;;;;;;;;5091874;28;20118;-89
2022/05/05 00:07:17;;;;;;;20.70;8.30;;;;;;;;;;5091592;28;20477;-90
2022/05/05 00:09:42;;;;;;;16.55;8.48;;;;;;;;;;5091901;28;20008;-89
2022/05/05 00:14:51;;;;;;;17.25;7.63;;;;;;;;;;5093053;28;20035;-90
2022/05/05 00:17:16;;;;;;;19.17;8.05;;;;;;;;;;5092503;28;20427;-90
2022/05/05 00:19:42;;;;;;;16.40;8.30;;;;;;;;;;5091464;28;20012;-90
2022/05/05 00:22:08;;;;;;;15.77;8.38;;;;;;;;;;5091354;28;20020;-89
2022/05/05 00:24:33;;;;;;;16.48;7.95;;;;;;;;;;5092593;28;20020;-89
2022/05/05 00:26:59;;;;;;;16.70;8.50;;;;;;;;;;5091349;28;20028;-89
2022/05/05 00:29:25;;;;;;;15.73;7.90;;;;;;;;;;5091726;28;20065;-89
2022/05/05 00:31:50;;;;;;;14.82;8.05;;;;;;;;;;5091485;28;20305;-89
2022/05/05 00:34:16;;;;;;;16.48;7.90;;;;;;;;;;5092582;28;20045;-90
2022/05/05 00:36:41;;;;;;;14.50;7.72;;;;;;;;;;5091335;28;20043;-90
2022/05/05 00:39:07;;;;;;;17.00;8.02;;;;;;;;;;5091375;28;20021;-90
2022/05/05 00:41:33;;;;;;;23.10;8.38;;;;;;;;;;5091453;28;20454;-90
2022/05/05 00:43:58;;;;;;;18.95;8.57;;;;;;;;;;5091186;28;20032;-89
2022/05/05 00:46:24;;;;;;;17.05;8.02;;;;;;;;;;5091065;28;20020;-89
2022/05/05 00:48:50;;;;;;;16.58;8.52;;;;;;;;;;5090888;28;20020;-90
2022/05/05 00:51:16;;;;;;;16.60;7.60;;;;;;;;;;5091548;28;20482;-89
2022/05/05 00:53:41;;;;;;;19.88;8.35;;;;;;;;;;5091063;28;20028;-89
2022/05/05 00:56:07;;;;;;;16.20;7.95;;;;;;;;;;5090993;28;20035;-90
2022/05/05 00:58:33;;;;;;;15.63;8.20;;;;;;;;;;5090852;28;20501;-89
2022/05/05 01:01:01;;;;;;;15.98;7.80;;;;;;;;;;5091102;28;20137;-90
2022/05/05 01:03:27;;;;;;;15.48;8.77;;;;;;;;;;5097714;28;20024;-89
2022/05/05 01:05:52;;;;;;;14.77;8.30;;;;;;;;;;5107772;28;20031;-89
2022/05/05 01:08:18;;;;;;;18.70;7.45;;;;;;;;;;5108031;28;20382;-90
2022/05/05 01:10:44;;;;;;;17.67;8.20;;;;;;;;;;5107873;28;20037;-89
2022/05/05 01:13:09;;;;;;;19.02;8.57;;;;;;;;;;5108392;28;20508;-89
2022/05/05 01:15:34;;;;;;;16.80;8.15;;;;;;;;;;5107999;28;20028;-89
2022/05/05 01:17:59;;;;;;;19.55;8.15;;;;;;;;;;5107835;28;20017;-89
2022/05/05 01:20:25;;;;;;;17.85;8.45;;;;;;;;;;5107903;28;20107;-89
2022/05/05 01:22:50;;;;;;;16.92;8.35;;;;;;;;;;5108245;28;20020;-90
2022/05/05 01:28:12;;;;;;;26.05;7.72;;;;;;;;;;5091856;28;20031;-89
2022/05/05 01:30:38;;;;;;;18.13;8.65;;;;;;;;;;5108047;28;20112;-89
2022/05/05 01:33:33;;;;;;;14.93;7.95;;;;;;;;;;5092828;28;20088;-89
2022/05/05 01:35:58;;;;;;;19.33;8.68;;;;;;;;;;5086346;28;20024;-90
2022/05/05 01:38:36;;;;;;;15.93;8.63;;;;;;;;;;5107388;28;20020;-90
2022/05/05 01:41:05;;;;;;;15.52;8.57;;;;;;;;;;5110023;28;20062;-89
2022/05/05 01:43:30;;;;;;;16.23;8.50;;;;;;;;;;5111471;28;20069;-90
2022/05/05 01:45:55;;;;;;;17.40;8.68;;;;;;;;;;5095716;28;20012;-90
2022/05/05 01:48:21;;;;;;;21.10;8.52;;;;;;;;;;5111268;28;20078;-90
2022/05/05 01:50:48;;;;;;;27.73;8.65;;;;;;;;;;5111655;28;20131;-89
2022/05/05 01:53:14;;;;;;;20.27;8.57;;;;;;;;;;5111343;28;20024;-90
2022/05/05 01:55:39;;;;;;;21.23;9.50;;;;;;;;;;5111271;28;20031;-89
2022/05/05 01:58:04;;;;;;;16.35;8.40;;;;;;;;;;5110996;28;20013;-89
2022/05/05 02:00:31;;;;;;;18.23;7.50;;;;;;;;;;5111241;28;20028;-89
2022/05/05 02:02:56;;;;;;;16.13;8.75;;;;;;;;;;5095100;28;20055;-90
2022/05/05 02:05:21;;;;;;;15.27;8.15;;;;;;;;;;5110903;28;20108;-90
2022/05/05 02:07:47;;;;;;;17.88;8.73;;;;;;;;;;5094938;28;20013;-89
2022/05/05 02:10:14;;;;;;;19.35;8.25;;;;;;;;;;5110835;28;20032;-90
2022/05/05 02:12:40;;;;;;;16.52;8.20;;;;;;;;;;5110720;28;20069;-90
2022/05/05 02:15:06;;;;;;;19.80;8.88;;;;;;;;;;5110290;28;20020;-89
2022/05/05 02:17:32;;;;;;;20.33;8.85;;;;;;;;;;5093751;28;20019;-89
2022/05/05 02:19:58;;;;;;;16.05;8.55;;;;;;;;;;5095045;28;20046;-89
2022/05/05 02:22:23;;;;;;;19.75;9.35;;;;;;;;;;5094599;28;20568;-89
2022/05/05 02:24:49;;;;;;;19.85;8.82;;;;;;;;;;5094722;28;20107;-89
2022/05/05 02:27:14;;;;;;;20.23;8.80;;;;;;;;;;5110472;28;20085;-89
2022/05/05 02:29:42;;;;;;;13.70;8.80;;;;;;;;;;5110720;28;20031;-90
2022/05/05 02:32:07;;;;;;;21.10;9.55;;;;;;;;;;5110669;28;20023;-89
2022/05/05 02:34:32;;;;;;;16.83;9.13;;;;;;;;;;5110602;28;20068;-89
2022/05/05 02:39:41;;;;;;;19.65;8.63;;;;;;;;;;5094863;28;20031;-90
2022/05/05 02:42:07;;;;;;;20.85;9.55;;;;;;;;;;5110502;28;20016;-89
2022/05/05 02:44:32;;;;;;;17.60;9.10;;;;;;;;;;5110494;28;20035;-89
2022/05/05 02:46:59;;;;;;;27.90;9.00;;;;;;;;;;5109892;28;20031;-89
2022/05/05 02:49:27;;;;;;;17.30;9.35;;;;;;;;;;5094517;28;20024;-89
2022/05/05 02:51:52;;;;;;;18.88;8.85;;;;;;;;;;5110373;28;20022;-90
2022/05/05 02:57:01;;;;;;;22.88;8.70;;;;;;;;;;5094179;28;20026;-89
2022/05/05 02:59:26;;;;;;;15.05;9.15;;;;;;;;;;5109940;28;20015;-89
2022/05/05 03:01:52;;;;;;;15.85;9.20;;;;;;;;;;5110011;28;20016;-89
2022/05/05 03:04:17;;;;;;;16.33;8.27;;;;;;;;;;5094106;28;20081;-89
2022/05/05 03:06:42;;;;;;;17.20;9.18;;;;;;;;;;5109598;28;20498;-89
2022/05/05 03:09:07;;;;;;;17.67;9.10;;;;;;;;;;5109847;28;20020;-89
2022/05/05 03:11:33;;;;;;;23.80;9.23;;;;;;;;;;5093992;28;20016;-89
2022/05/05 03:13:59;;;;;;;16.40;9.13;;;;;;;;;;5109531;28;20035;-89
2022/05/05 03:16:24;;;;;;;25.92;9.35;;;;;;;;;;5109504;28;20379;-89
2022/05/05 03:18:49;;;;;;;19.13;9.55;;;;;;;;;;5093714;28;20450;-89
2022/05/05 03:21:14;;;;;;;20.42;9.23;;;;;;;;;;5109587;28;20028;-89
2022/05/05 03:23:40;;;;;;;26.70;9.60;;;;;;;;;;5093937;28;20028;-89
2022/05/05 03:26:05;;;;;;;18.52;8.75;;;;;;;;;;5109153;28;20433;-89
2022/05/05 03:28:30;;;;;;;17.98;9.93;;;;;;;;;;5109229;28;20112;-89
2022/05/05 03:30:56;;;;;;;23.45;10.40;;;;;;;;;;5109192;28;20107;-89
2022/05/05 03:33:21;;;;;;;25.98;9.65;;;;;;;;;;5093336;28;20104;-89
2022/05/05 03:35:46;;;;;;;19.40;9.95;;;;;;;;;;5109050;28;20009;-89
2022/05/05 03:38:11;;;;;;;20.10;9.90;;;;;;;;;;5108877;28;20016;-89
2022/05/05 03:40:36;;;;;;;19.83;10.10;;;;;;;;;;5108879;28;20012;-90
2022/05/05 03:43:02;;;;;;;18.58;9.77;;;;;;;;;;5092360;28;20043;-90
2022/05/05 03:45:27;;;;;;;32.50;11.38;;;;;;;;;;5109177;28;20060;-89
2022/05/05 03:47:52;;;;;;;19.42;9.95;;;;;;;;;;5091638;28;20110;-88
2022/05/05 03:50:17;;;;;;;21.48;10.82;;;;;;;;;;5109212;28;20037;-88
2022/05/05 03:52:42;;;;;;;22.00;10.32;;;;;;;;;;5091600;28;20455;-90
2022/05/05 03:55:08;;;;;;;23.20;10.32;;;;;;;;;;5091605;28;20036;-89
2022/05/05 03:57:33;;;;;;;19.40;9.82;;;;;;;;;;5091416;28;20232;-89
2022/05/05 03:59:59;;;;;;;19.02;9.98;;;;;;;;;;5108735;28;20020;-90
2022/05/05 04:02:24;;;;;;;21.90;10.00;;;;;;;;;;5093078;28;20020;-89
2022/05/05 04:04:49;;;;;;;20.05;9.82;;;;;;;;;;5092641;28;20023;-90
2022/05/05 04:07:14;;;;;;;22.35;10.50;;;;;;;;;;5108486;28;20034;-89
2022/05/05 04:09:39;;;;;;;22.88;10.15;;;;;;;;;;5092956;28;20055;-89
2022/05/05 04:12:06;;;;;;;20.38;9.82;;;;;;;;;;5091768;28;20110;-89
2022/05/05 04:14:33;;;;;;;17.63;9.73;;;;;;;;;;5108854;28;20020;-90
2022/05/05 04:16:59;;;;;;;20.20;9.95;;;;;;;;;;5108630;28;20044;-90
2022/05/05 04:19:24;;;;;;;20.55;10.20;;;;;;;;;;5108709;28;20047;-89
2022/05/05 04:21:49;;;;;;;21.15;10.23;;;;;;;;;;5091690;28;20115;-89
2022/05/05 04:24:14;;;;;;;18.05;10.10;;;;;;;;;;5091475;28;20019;-89
2022/05/05 04:26:39;;;;;;;19.67;10.20;;;;;;;;;;5091234;28;20020;-90
2022/05/05 04:29:05;;;;;;;26.33;10.40;;;;;;;;;;5091317;28;20024;-89
2022/05/05 04:31:31;;;;;;;25.08;10.32;;;;;;;;;;5091623;28;20143;-89
2022/05/05 04:33:57;;;;;;;21.15;10.32;;;;;;;;;;5091342;28;20024;-89
2022/05/05 04:36:22;;;;;;;22.70;10.85;;;;;;;;;;5091200;28;20389;-89
2022/05/05 04:38:48;;;;;;;24.48;11.60;;;;;;;;;;5091118;28;20023;-89
2022/05/05 04:41:13;;;;;;;22.30;10.45;;;;;;;;;;5091631;28;20111;-89
2022/05/05 04:43:38;;;;;;;22.63;10.63;;;;;;;;;;5091588;28;20064;-89
2022/05/05 04:46:04;;;;;;;21.38;10.85;;;;;;;;;;5092419;28;20023;-89
2022/05/05 04:48:29;;;;;;;23.85;10.98;;;;;;;;;;5090999;28;20471;-89
2022/05/05 04:50:55;;;;;;;18.08;10.63;;;;;;;;;;5091184;28;20023;-89
2022/05/05 04:53:20;;;;;;;24.92;11.40;;;;;;;;;;5091118;28;20107;-89
2022/05/05 04:55:45;;;;;;;24.10;10.82;;;;;;;;;;5091382;28;20035;-89
2022/05/05 04:58:10;;;;;;;26.05;11.50;;;;;;;;;;5091279;28;20081;-89
2022/05/05 05:00:36;;;;;;;22.52;11.10;;;;;;;;;;5091224;28;20016;-89
2022/05/05 05:03:01;;;;;;;25.55;11.93;;;;;;;;;;5092062;28;20069;-89
2022/05/05 05:05:26;;;;;;;27.35;11.20;;;;;;;;;;5091325;28;20360;-89
2022/05/05 05:07:51;;;;;;;33.50;11.80;;;;;;;;;;5090727;28;20097;-89
2022/05/05 05:10:17;;;;;;;24.10;10.68;;;;;;;;;;5091020;28;20164;-89
2022/05/05 05:12:42;;;;;;;22.85;11.15;;;;;;;;;;5091217;28;20028;-89
2022/05/05 05:15:07;;;;;;;20.73;11.25;;;;;;;;;;5091783;28;20032;-89
2022/05/05 05:17:33;;;;;;;22.30;11.88;;;;;;;;;;5094786;28;20455;-89
2022/05/05 05:19:58;;;;;;;28.65;12.25;;;;;;;;;;5094967;28;20024;-90
2022/05/05 05:22:23;;;;;;;26.48;12.57;;;;;;;;;;5096260;28;20048;-89
2022/05/05 05:24:48;;;;;;;31.02;12.30;;;;;;;;;;5094958;28;20462;-89
2022/05/05 05:27:14;;;;;;;26.55;11.48;;;;;;;;;;5095504;28;20471;-89
2022/05/05 05:29:39;;;;;;;20.92;11.50;;;;;;;;;;5094777;28;20055;-89
2022/05/05 05:32:04;;;;;;;25.08;11.82;;;;;;;;;;5094765;28;20032;-90
2022/05/05 05:34:30;;;;;;;23.98;11.55;;;;;;;;;;5094703;28;20020;-89
2022/05/05 05:36:55;;;;;;;25.50;10.50;;;;;;;;;;5094227;28;20031;-90
2022/05/05 05:39:21;;;;;;;18.13;10.60;;;;;;;;;;5094310;28;20054;-90
2022/05/05 05:41:46;;;;;;;21.27;10.40;;;;;;;;;;5094509;28;20011;-89
2022/05/05 05:44:11;;;;;;;22.25;10.52;;;;;;;;;;5094530;28;20497;-89
2022/05/05 05:46:37;;;;;;;21.77;11.30;;;;;;;;;;5095508;28;20023;-89
2022/05/05 05:49:02;;;;;;;20.77;11.07;;;;;;;;;;5094737;28;20111;-89
2022/05/05 05:51:27;;;;;;;21.60;11.18;;;;;;;;;;5093914;28;20390;-89
2022/05/05 05:53:53;;;;;;;25.60;12.15;;;;;;;;;;5094076;28;20024;-90
2022/05/05 05:56:18;;;;;;;25.33;12.07;;;;;;;;;;5107098;28;20517;-90
2022/05/05 05:58:43;;;;;;;32.22;12.85;;;;;;;;;;5115404;28;20020;-89
2022/05/05 06:01:09;;;;;;;27.90;12.80;;;;;;;;;;5112435;28;20040;-90
2022/05/05 06:06:18;;;;;;;30.52;13.30;;;;;;;;;;5116782;28;20772;-90
2022/05/05 06:08:44;;;;;;;30.88;14.10;;;;;;;;;;5115377;28;20044;-90
2022/05/05 06:11:11;;;;;;;31.13;13.43;;;;;;;;;;5115203;28;20024;-89
2022/05/05 06:13:36;;;;;;;26.98;13.07;;;;;;;;;;5116448;28;20470;-89
2022/05/05 06:16:01;;;;;;;37.05;14.10;;;;;;;;;;5114901;28;20020;-90
2022/05/05 06:18:26;;;;;;;32.47;14.55;;;;;;;;;;5115255;28;20477;-89
2022/05/05 06:20:53;;;;;;;42.58;14.40;;;;;;;;;;5115451;28;20020;-89
2022/05/05 06:23:18;;;;;;;33.80;13.85;;;;;;;;;;5115284;28;20031;-89
2022/05/05 06:25:44;;;;;;;28.90;14.23;;;;;;;;;;5115012;28;20020;-89
2022/05/05 06:28:09;;;;;;;29.90;14.30;;;;;;;;;;5116112;28;20015;-89
2022/05/05 06:30:34;;;;;;;38.58;15.98;;;;;;;;;;5112865;28;20020;-90
2022/05/05 06:32:59;;;;;;;29.52;14.77;;;;;;;;;;5114265;27;20076;-90
2022/05/05 06:35:25;;;;;;;33.97;14.88;;;;;;;;;;5114883;28;20359;-90
2022/05/05 06:37:51;;;;;;;31.63;14.93;;;;;;;;;;5115750;28;20011;-89
2022/05/05 06:40:17;;;;;;;38.22;15.13;;;;;;;;;;5115812;28;20016;-89
2022/05/05 06:42:42;;;;;;;33.97;15.55;;;;;;;;;;5114570;28;20023;-89
2022/05/05 06:45:07;;;;;;;33.58;16.20;;;;;;;;;;5114816;28;20022;-89
2022/05/05 06:47:33;;;;;;;37.28;15.88;;;;;;;;;;5116099;28;20481;-90
2022/05/05 06:49:58;;;;;;;39.28;16.77;;;;;;;;;;5114681;28;20508;-90
2022/05/05 06:52:23;;;;;;;37.45;16.48;;;;;;;;;;5114728;28;20047;-89
2022/05/05 06:54:49;;;;;;;35.65;16.42;;;;;;;;;;5114368;28;20065;-89
2022/05/05 06:57:14;;;;;;;34.00;15.90;;;;;;;;;;5113641;28;20064;-89
2022/05/05 06:59:39;;;;;;;35.17;16.98;;;;;;;;;;5113529;28;20065;-89
2022/05/05 07:02:05;;;;;;;39.72;17.80;;;;;;;;;;5113055;28;20055;-90
2022/05/05 07:07:15;;;;;;;42.50;18.20;;;;;;;;;;5114940;28;20038;-90
2022/05/05 07:12:25;;;;;;;45.50;19.42;;;;;;;;;;5114397;28;20534;-89
2022/05/05 07:14:50;;;;;;;44.28;19.95;;;;;;;;;;5113018;28;20024;-90
2022/05/05 07:17:15;;;;;;;44.75;19.98;;;;;;;;;;5112729;28;20019;-90
2022/05/05 07:19:41;;;;;;;45.33;21.08;;;;;;;;;;5112936;28;20015;-89
2022/05/05 07:22:06;;;;;;;44.10;19.83;;;;;;;;;;5112551;28;20024;-89
2022/05/05 07:24:32;;;;;;;48.85;22.23;;;;;;;;;;5112927;28;20072;-90
2022/05/05 07:26:57;;;;;;;40.88;21.00;;;;;;;;;;5113164;28;20232;-89
2022/05/05 07:29:23;;;;;;;50.20;22.17;;;;;;;;;;5112709;28;20038;-89
2022/05/05 07:31:48;;;;;;;50.25;22.23;;;;;;;;;;5113409;28;20027;-89
2022/05/05 07:34:14;;;;;;;56.50;22.05;;;;;;;;;;5113940;28;20102;-89
2022/05/05 07:36:39;;;;;;;47.42;22.75;;;;;;;;;;5112546;28;20020;-90
2022/05/05 07:39:04;;;;;;;48.53;23.40;;;;;;;;;;5111462;28;20019;-89
2022/05/05 07:41:30;;;;;;;52.90;23.45;;;;;;;;;;5112254;28;20023;-90
2022/05/05 07:43:55;;;;;;;47.30;22.90;;;;;;;;;;5112329;28;20027;-90
2022/05/05 07:46:20;;;;;;;53.75;23.45;;;;;;;;;;5113572;28;20016;-89
2022/05/05 07:48:46;;;;;;;54.72;22.73;;;;;;;;;;5113548;28;20015;-89
2022/05/05 07:51:11;;;;;;;56.00;24.38;;;;;;;;;;5111970;28;20037;-90
2022/05/05 07:53:37;;;;;;;59.35;25.42;;;;;;;;;;5112210;28;20015;-90
2022/05/05 07:56:02;;;;;;;52.50;24.23;;;;;;;;;;5112378;28;20031;-90
2022/05/05 07:58:27;;;;;;;47.10;23.35;;;;;;;;;;5112558;28;20440;-89
2022/05/05 08:00:53;;;;;;;52.58;24.10;;;;;;;;;;5112044;28;20027;-89
2022/05/05 08:03:18;;;;;;;51.13;23.45;;;;;;;;;;5113182;28;20077;-90
2022/05/05 08:05:44;;;;;;;53.45;24.83;;;;;;;;;;5112049;28;20053;-89
2022/05/05 08:08:09;;;;;;;54.00;25.20;;;;;;;;;;5112143;28;20024;-89
2022/05/05 08:10:34;;;;;;;53.25;24.33;;;;;;;;;;5111618;28;20039;-90
2022/05/05 08:12:59;;;;;;;52.05;25.30;;;;;;;;;;5111988;28;20026;-89
2022/05/05 08:15:25;;;;;;;59.40;27.00;;;;;;;;;;5111972;28;20019;-89
2022/05/05 08:17:50;;;;;;;46.13;24.67;;;;;;;;;;5111988;28;20011;-90
2022/05/05 08:20:15;;;;;;;57.35;28.25;;;;;;;;;;5112855;28;20378;-90
2022/05/05 08:22:41;;;;;;;56.90;25.83;;;;;;;;;;5111892;28;20020;-90
2022/05/05 08:30:34;;;;;;;57.55;28.25;;;;;;;;;;5112288;28;20030;-90
2022/05/05 08:32:59;;;;;;;62.08;27.98;;;;;;;;;;5113013;28;20015;-89
2022/05/05 08:35:27;;;;;;;63.38;27.33;;;;;;;;;;5111715;28;20023;-90
2022/05/05 08:37:52;;;;;;;59.50;31.10;;;;;;;;;;5111345;28;20014;-90
2022/05/05 08:40:18;;;;;;;70.15;29.55;;;;;;;;;;5110908;28;20110;-89
2022/05/05 08:42:44;;;;;;;59.78;29.15;;;;;;;;;;5111303;28;20028;-90
2022/05/05 08:45:09;;;;;;;58.25;27.58;;;;;;;;;;5111592;28;20012;-90
2022/05/05 08:47:36;;;;;;;61.50;29.58;;;;;;;;;;5111064;28;20015;-89
2022/05/05 08:50:01;;;;;;;67.07;31.35;;;;;;;;;;5113477;28;20024;-90
2022/05/05 08:52:30;;;;;;;66.55;30.85;;;;;;;;;;5117014;28;20375;-89
2022/05/05 08:54:56;;;;;;;62.50;31.88;;;;;;;;;;5115410;28;20111;-89
2022/05/05 08:57:21;;;;;;;65.43;29.05;;;;;;;;;;5115747;28;20102;-90
2022/05/05 08:59:47;;;;;;;66.90;31.33;;;;;;;;;;5116191;28;20020;-90
2022/05/05 09:02:12;;;;;;;66.07;32.17;;;;;;;;;;5115539;28;20024;-90
2022/05/05 09:04:37;;;;;;;68.97;31.00;;;;;;;;;;5115483;28;20032;-90
2022/05/05 09:07:03;;;;;;;61.80;31.10;;;;;;;;;;5117056;28;20027;-90
2022/05/05 09:09:28;;;;;;;59.50;27.02;;;;;;;;;;5116518;28;20080;-89
2022/05/05 09:12:07;;;;;;;62.92;28.33;;;;;;;;;;5114933;28;20055;-89
2022/05/05 09:14:39;;;;;;;61.90;29.48;;;;;;;;;;5115341;28;20062;-90
2022/05/05 09:17:10;;;;;;;55.58;25.17;;;;;;;;;;5115024;28;20052;-90
2022/05/05 09:19:37;;;;;;;63.63;30.47;;;;;;;;;;5114805;28;20107;-90
2022/05/05 09:22:03;;;;;;;57.55;28.52;;;;;;;;;;5114570;28;20084;-89
2022/05/05 09:24:41;;;;;;;70.68;29.60;;;;;;;;;;5115850;28;20019;-90
2022/05/05 09:27:24;;;;;;;61.33;29.67;;;;;;;;;;5114746;28;20058;-89
2022/05/05 09:29:55;;;;;;;58.95;28.92;;;;;;;;;;5115836;28;20008;-90
2022/05/05 09:32:21;;;;;;;59.63;27.70;;;;;;;;;;5115891;28;20023;-89
2022/05/05 09:34:46;;;;;;;52.47;25.23;;;;;;;;;;5114737;28;20045;-90
2022/05/05 09:37:20;;;;;;;63.92;31.73;;;;;;;;;;5116246;28;20019;-90
2022/05/05 09:39:46;;;;;;;55.97;27.75;;;;;;;;;;5114725;28;20027;-89
2022/05/05 09:42:11;;;;;;;54.40;26.15;;;;;;;;;;5115701;27;20015;-90
2022/05/05 09:44:45;;;;;;;51.35;23.80;;;;;;;;;;5114991;28;20490;-90
2022/05/05 09:47:14;;;;;;;41.97;21.45;;;;;;;;;;5114539;28;20104;-90
2022/05/05 09:49:39;;;;;;;48.25;24.77;;;;;;;;;;5114960;28;20553;-90
2022/05/05 09:57:56;;;;;;;42.78;23.00;;;;;;;;;;5091866;28;20063;-90
2022/05/05 10:05:43;;;;;;;41.28;19.83;;;;;;;;;;5115891;28;20531;-90
2022/05/05 10:08:09;;;;;;;37.83;20.92;;;;;;;;;;5114602;28;20027;-90
2022/05/05 10:10:34;;;;;;;48.85;19.17;;;;;;;;;;5113896;28;20115;-90
2022/05/05 10:12:59;;;;;;;36.17;18.42;;;;;;;;;;5114174;28;20035;-89
2022/05/05 10:15:25;;;;;;;36.42;15.55;;;;;;;;;;5113852;28;20347;-90
2022/05/05 10:17:50;;;;;;;35.92;17.65;;;;;;;;;;5113822;28;20047;-89
2022/05/05 10:20:16;;;;;;;37.17;17.80;;;;;;;;;;5114624;28;20070;-90
2022/05/05 10:22:41;;;;;;;35.10;17.65;;;;;;;;;;5114050;28;20019;-90
2022/05/05 10:25:09;;;;;;;34.92;17.15;;;;;;;;;;5113584;28;20110;-90
2022/05/05 10:27:40;;;;;;;31.30;16.90;;;;;;;;;;5113867;28;20058;-89
2022/05/05 10:30:12;;;;;;;23.33;10.65;;;;;;;;;;5114516;28;20034;-90
2022/05/05 10:32:37;;;;;;;11.68;6.22;;;;;;;;;;5113881;28;20027;-89
2022/05/05 10:35:12;;;;;;;22.60;10.40;;;;;;;;;;5113734;28;20466;-89
2022/05/05 10:37:37;;;;;;;29.60;13.85;;;;;;;;;;5113428;28;20462;-89
2022/05/05 10:40:07;;;;;;;30.00;15.40;;;;;;;;;;5113046;28;20032;-90
2022/05/05 10:42:39;;;;;;;34.30;17.27;;;;;;;;;;5113641;28;20519;-89
2022/05/05 10:45:07;;;;;;;36.67;17.85;;;;;;;;;;5114848;28;20026;-89
2022/05/05 10:47:47;;;;;;;37.53;18.95;;;;;;;;;;5114893;28;20030;-90
2022/05/05 10:50:29;;;;;;;39.42;20.33;;;;;;;;;;5113109;28;20500;-90
2022/05/05 10:52:54;;;;;;;35.28;19.38;;;;;;;;;;5114613;28;20156;-90
2022/05/05 10:55:55;;;;;;;36.15;18.67;;;;;;;;;;5113356;28;20111;-89
2022/05/05 10:58:39;;;;;;;34.55;16.52;;;;;;;;;;5054931;28;20028;-90
2022/05/05 11:01:08;;;;;;;37.10;20.05;;;;;;;;;;5107463;28;20023;-90
2022/05/05 11:03:33;;;;;;;34.90;16.48;;;;;;;;;;5111816;28;20394;-89
2022/05/05 11:06:15;;;;;;;27.13;13.60;;;;;;;;;;5113845;28;20035;-90
2022/05/05 11:08:52;;;;;;;28.40;15.65;;;;;;;;;;5114243;27;20024;-90
2022/05/05 11:14:01;;;;;;;33.10;15.48;;;;;;;;;;5114208;28;20030;-90
2022/05/05 11:22:14;;;;;;;31.77;14.55;;;;;;;;;;5114796;28;20027;-90
2022/05/05 11:24:42;;;;;;;30.23;15.38;;;;;;;;;;5101993;28;20114;-89
2022/05/05 11:27:11;;;;;;;30.77;15.90;;;;;;;;;;5113601;28;20062;-91
2022/05/05 11:29:36;;;;;;;29.00;14.20;;;;;;;;;;5113986;28;20024;-90
2022/05/05 11:32:04;;;;;;;22.85;11.55;;;;;;;;;;5113620;28;20027;-90
2022/05/05 11:34:33;;;;;;;23.40;13.05;;;;;;;;;;5113694;28;20470;-90
2022/05/05 11:37:01;;;;;;;23.08;14.00;;;;;;;;;;5114521;28;20024;-89
2022/05/05 11:39:27;;;;;;;28.38;16.02;;;;;;;;;;5113652;28;20016;-90
2022/05/05 11:42:03;;;;;;;25.77;14.38;;;;;;;;;;5112143;28;20026;-90
2022/05/05 11:44:29;;;;;;;34.67;14.45;;;;;;;;;;5111781;28;20032;-90
2022/05/05 11:46:54;;;;;;;26.52;16.55;;;;;;;;;;5112154;28;20133;-90
2022/05/05 11:49:20;;;;;;;28.00;15.40;;;;;;;;;;5112663;28;20069;-91
2022/05/05 11:51:45;;;;;;;32.00;17.58;;;;;;;;;;5112171;28;20019;-90
2022/05/05 11:54:14;;;;;;;25.75;15.10;;;;;;;;;;5112463;28;20141;-91
2022/05/05 11:56:45;;;;;;;31.80;18.05;;;;;;;;;;5112507;28;20493;-90
2022/05/05 12:02:04;;;;;;;33.45;16.85;;;;;;;;;;5113687;28;20485;-90
2022/05/05 12:04:30;;;;;;;31.05;16.83;;;;;;;;;;5113299;28;20027;-89
2022/05/05 12:06:57;;;;;;;28.05;17.17;;;;;;;;;;5112067;28;20352;-90
2022/05/05 12:09:22;;;;;;;34.38;16.95;;;;;;;;;;5112171;28;20035;-91
2022/05/05 12:11:47;;;;;;;30.02;15.93;;;;;;;;;;5111895;28;20386;-90
2022/05/05 12:14:13;;;;;;;29.58;17.02;;;;;;;;;;5113008;28;20020;-90
2022/05/05 12:16:39;;;;;;;39.63;18.83;;;;;;;;;;5111964;28;20020;-90
2022/05/05 12:19:11;;;;;;;36.97;19.02;;;;;;;;;;5111734;28;20428;-91
2022/05/05 12:21:36;;;;;;;35.47;18.02;;;;;;;;;;5111866;28;20102;-91
2022/05/05 12:24:03;;;;;;;36.08;21.80;;;;;;;;;;5111911;28;20491;-90
2022/05/05 12:26:32;;;;;;;35.35;19.40;;;;;;;;;;5111936;28;20023;-90
2022/05/05 12:28:58;;;;;;;31.25;18.08;;;;;;;;;;5112149;28;20043;-91
2022/05/05 12:31:24;;;;;;;36.88;20.02;;;;;;;;;;5111836;28;20063;-91
2022/05/05 12:33:50;;;;;;;34.47;19.17;;;;;;;;;;5111938;28;20023;-91
2022/05/05 12:36:16;;;;;;;35.05;20.90;;;;;;;;;;5112000;28;20016;-91
2022/05/05 12:38:41;;;;;;;34.60;20.00;;;;;;;;;;5111664;28;20012;-91
2022/05/05 12:41:07;;;;;;;37.58;19.98;;;;;;;;;;5111696;28;20481;-91
2022/05/05 12:43:32;;;;;;;35.95;20.58;;;;;;;;;;5111948;28;20096;-91
2022/05/05 12:46:02;;;;;;;35.45;21.73;;;;;;;;;;5111978;28;20047;-91
2022/05/05 12:48:28;;;;;;;37.40;21.33;;;;;;;;;;5113206;28;20401;-90
2022/05/05 12:50:56;;;;;;;42.35;20.25;;;;;;;;;;5111349;28;20130;-90
2022/05/05 13:01:38;;;;;;;35.35;22.58;;;;;;;;;;5112654;28;20501;-90
2022/05/05 13:04:09;;;;;;;32.65;18.48;;;;;;;;;;5111490;28;20030;-90
2022/05/05 13:06:35;;;;;;;36.58;22.20;;;;;;;;;;5112591;28;20016;-91
2022/05/05 13:09:00;;;;;;;38.22;23.95;;;;;;;;;;5112832;28;20024;-90
2022/05/05 13:11:26;;;;;;;34.78;20.75;;;;;;;;;;5111396;28;20023;-91
2022/05/05 13:13:51;;;;;;;41.20;23.02;;;;;;;;;;5111634;28;20036;-90
2022/05/05 13:16:16;;;;;;;49.70;28.13;;;;;;;;;;5112397;28;20015;-90
2022/05/05 13:18:42;;;;;;;47.35;26.75;;;;;;;;;;5111226;28;20099;-90
2022/05/05 13:21:07;;;;;;;52.10;27.58;;;;;;;;;;5111020;28;20016;-91
2022/05/05 13:23:34;;;;;;;49.67;30.08;;;;;;;;;;5112513;28;20065;-90
2022/05/05 13:25:59;;;;;;;44.60;27.48;;;;;;;;;;5111201;28;20031;-90
2022/05/05 13:28:25;;;;;;;49.95;27.20;;;;;;;;;;5110813;28;20027;-91
2022/05/05 13:30:50;;;;;;;49.22;27.50;;;;;;;;;;5111766;28;20076;-90
2022/05/05 13:33:15;;;;;;;50.78;29.23;;;;;;;;;;5111052;28;20026;-90
2022/05/05 13:35:40;;;;;;;46.05;28.50;;;;;;;;;;5111169;28;20050;-90
2022/05/05 13:38:06;;;;;;;39.38;23.00;;;;;;;;;;5114797;28;20095;-91
2022/05/05 13:40:31;;;;;;;51.83;27.80;;;;;;;;;;5114608;28;20444;-90
2022/05/05 13:42:56;;;;;;;44.28;26.05;;;;;;;;;;5114747;28;20028;-90
2022/05/05 13:45:22;;;;;;;40.60;23.95;;;;;;;;;;5114791;28;20019;-90
2022/05/05 13:47:47;;;;;;;45.58;26.00;;;;;;;;;;5116064;28;20015;-91
2022/05/05 13:50:13;;;;;;;46.55;28.30;;;;;;;;;;5114587;28;20363;-91
2022/05/05 13:52:43;;;;;;;45.53;24.80;;;;;;;;;;5115935;28;20023;-90
2022/05/05 13:55:08;;;;;;;43.45;25.80;;;;;;;;;;5115607;28;20031;-91
2022/05/05 13:57:33;;;;;;;41.88;24.25;;;;;;;;;;5114700;28;20018;-90
2022/05/05 13:59:59;;;;;;;39.55;24.48;;;;;;;;;;5113913;28;20040;-91
2022/05/05 14:02:24;;;;;;;37.88;21.02;;;;;;;;;;5114202;28;20073;-91
2022/05/05 14:04:49;;;;;;;39.70;19.23;;;;;;;;;;5114264;28;20018;-91
2022/05/05 14:07:15;;;;;;;30.83;17.27;;;;;;;;;;5115381;28;20024;-91
2022/05/05 14:12:24;;;;;;;26.98;14.43;;;;;;;;;;5115518;28;20069;-90
2022/05/05 14:14:49;;;;;;;27.33;16.02;;;;;;;;;;5113980;28;20047;-91
2022/05/05 14:17:17;;;;;;;30.55;18.75;;;;;;;;;;5113993;28;20072;-91
2022/05/05 14:19:43;;;;;;;30.55;17.23;;;;;;;;;;5113458;28;20019;-90
2022/05/05 14:22:08;;;;;;;29.27;17.67;;;;;;;;;;5115244;28;20031;-90
2022/05/05 14:24:34;;;;;;;30.17;17.40;;;;;;;;;;5107777;28;20088;-90
2022/05/05 14:27:00;;;;;;;30.13;17.92;;;;;;;;;;5102242;28;20513;-91
2022/05/05 14:29:25;;;;;;;25.98;15.30;;;;;;;;;;5093441;28;20020;-90
2022/05/05 14:31:50;;;;;;;41.13;19.42;;;;;;;;;;5094610;28;20020;-91
2022/05/05 14:34:16;;;;;;;37.55;20.15;;;;;;;;;;5093518;28;20463;-90
2022/05/05 14:36:41;;;;;;;38.28;19.45;;;;;;;;;;5093687;28;20051;-90
2022/05/05 14:39:06;;;;;;;30.88;18.95;;;;;;;;;;5094380;28;20008;-91
2022/05/05 14:41:32;;;;;;;38.60;21.05;;;;;;;;;;5092895;28;20069;-90
2022/05/05 14:43:57;;;;;;;35.10;19.83;;;;;;;;;;5092647;28;20035;-91
2022/05/05 14:46:22;;;;;;;37.58;18.55;;;;;;;;;;5094320;28;20060;-90
2022/05/05 14:48:49;;;;;;;34.13;20.17;;;;;;;;;;5092617;28;20445;-90
2022/05/05 14:51:14;;;;;;;39.90;20.48;;;;;;;;;;5092916;28;20024;-90
2022/05/05 14:53:39;;;;;;;30.75;17.15;;;;;;;;;;5093073;28;20115;-91
2022/05/05 14:56:05;;;;;;;35.40;21.05;;;;;;;;;;5092673;28;20026;-90
2022/05/05 14:58:30;;;;;;;40.65;21.75;;;;;;;;;;5093023;28;20034;-91
2022/05/05 15:00:55;;;;;;;37.25;21.88;;;;;;;;;;5094078;28;20004;-91
2022/05/05 15:03:20;;;;;;;32.95;18.52;;;;;;;;;;5093335;28;20016;-90
2022/05/05 15:05:46;;;;;;;42.28;22.10;;;;;;;;;;5092942;28;20028;-90
2022/05/05 15:08:11;;;;;;;44.05;23.70;;;;;;;;;;5094422;28;20024;-91
2022/05/05 15:10:36;;;;;;;42.83;24.42;;;;;;;;;;5092678;28;20019;-90
2022/05/05 15:13:01;;;;;;;39.67;23.92;;;;;;;;;;5093031;28;20028;-91